createdAt,value
2022-10-13T00:00:15.265Z,16.47
2022-10-13T00:02:42.967Z,15.73
2022-10-13T00:05:11.172Z,15.23
2022-10-13T00:07:38.948Z,12.53
2022-10-13T00:10:06.891Z,10.73
2022-10-13T00:12:38.158Z,12.68
2022-10-13T00:15:06.730Z,14.10
2022-10-13T00:17:36.513Z,15.48
2022-10-13T00:20:04.998Z,15.93
2022-10-13T00:22:33.124Z,12.38
2022-10-13T00:25:00.855Z,11.43
2022-10-13T00:27:29.340Z,14.95
2022-10-13T00:29:57.168Z,14.85
2022-10-13T00:32:24.812Z,13.70
2022-10-13T00:34:52.702Z,14.93
2022-10-13T00:37:20.374Z,12.55
2022-10-13T00:39:48.123Z,14.03
2022-10-13T00:42:16.105Z,17.80
2022-10-13T00:45:00.148Z,12.80
2022-10-13T00:47:29.350Z,13.82
2022-10-13T00:49:57.112Z,14.60
2022-10-13T00:52:24.824Z,13.57
2022-10-13T00:54:52.659Z,18.58
2022-10-13T00:57:21.052Z,15.07
2022-10-13T00:59:48.819Z,17.25
2022-10-13T01:02:16.830Z,14.57
2022-10-13T01:04:45.542Z,21.37
2022-10-13T01:07:14.942Z,13.68
2022-10-13T01:09:42.798Z,16.08
2022-10-13T01:12:26.012Z,17.38
2022-10-13T01:14:53.926Z,18.40
2022-10-13T01:17:30.508Z,13.77
2022-10-13T01:20:07.870Z,13.52
2022-10-13T01:22:54.203Z,16.17
2022-10-13T01:25:27.774Z,8.90
2022-10-13T01:27:58.563Z,14.82
2022-10-13T01:30:26.206Z,16.10
2022-10-13T01:32:59.969Z,14.35
2022-10-13T01:35:32.863Z,25.73
2022-10-13T01:38:12.835Z,16.20
2022-10-13T01:40:40.524Z,17.17
2022-10-13T01:43:09.680Z,17.33
2022-10-13T01:45:56.566Z,18.90
2022-10-13T01:48:24.350Z,18.73
2022-10-13T01:50:52.155Z,12.00
2022-10-13T01:53:19.961Z,15.88
2022-10-13T01:55:51.796Z,15.83
2022-10-13T01:58:19.502Z,20.20
2022-10-13T02:00:52.167Z,17.70
2022-10-13T02:03:24.756Z,22.23
2022-10-13T02:06:02.587Z,17.80
2022-10-13T02:08:36.331Z,14.63
2022-10-13T02:11:13.554Z,16.88
2022-10-13T02:13:42.770Z,10.97
2022-10-13T02:16:10.581Z,10.32
2022-10-13T02:18:38.357Z,13.65
2022-10-13T02:21:06.174Z,15.07
2022-10-13T02:23:33.912Z,13.32
2022-10-13T02:26:01.569Z,17.77
2022-10-13T02:28:29.635Z,21.73
2022-10-13T02:30:57.326Z,18.50
2022-10-13T02:33:25.036Z,12.00
2022-10-13T02:35:52.791Z,13.63
2022-10-13T02:38:20.712Z,14.97
2022-10-13T02:40:48.370Z,18.88
2022-10-13T02:43:16.718Z,17.38
2022-10-13T02:45:44.438Z,14.80
2022-10-13T02:48:12.258Z,15.30
2022-10-13T02:50:40.387Z,18.63
2022-10-13T02:53:08.129Z,17.85
2022-10-13T02:55:35.899Z,20.23
2022-10-13T02:58:03.658Z,25.42
2022-10-13T03:00:31.476Z,22.52
2022-10-13T03:02:59.245Z,17.47
2022-10-13T03:05:27.053Z,15.25
2022-10-13T03:07:55.795Z,21.05
2022-10-13T03:10:23.578Z,15.93
2022-10-13T03:12:51.217Z,21.20
2022-10-13T03:15:19.089Z,17.33
2022-10-13T03:17:46.734Z,12.60
2022-10-13T03:20:14.734Z,15.10
2022-10-13T03:22:44.932Z,13.02
2022-10-13T03:25:16.627Z,16.23
2022-10-13T03:27:44.348Z,16.33
2022-10-13T03:30:12.186Z,13.30
2022-10-13T03:32:40.843Z,19.30
2022-10-13T03:35:08.790Z,12.20
2022-10-13T03:37:36.499Z,13.95
2022-10-13T03:40:04.277Z,16.55
2022-10-13T03:42:32.025Z,15.52
2022-10-13T03:44:59.723Z,14.73
2022-10-13T03:47:27.566Z,13.48
2022-10-13T03:49:56.168Z,13.68
2022-10-13T03:52:24.017Z,12.87
2022-10-13T03:54:51.925Z,14.85
2022-10-13T03:57:19.568Z,17.55
2022-10-13T03:59:47.388Z,16.30
2022-10-13T04:02:15.035Z,13.48
2022-10-13T04:04:42.784Z,17.27
2022-10-13T04:07:10.438Z,11.45
2022-10-13T04:09:38.174Z,14.03
2022-10-13T04:12:05.946Z,14.77
2022-10-13T04:14:33.714Z,20.80
2022-10-13T04:17:01.650Z,19.07
2022-10-13T04:19:29.478Z,15.25
2022-10-13T04:21:57.257Z,15.20
2022-10-13T04:24:24.917Z,20.53
2022-10-13T04:26:52.670Z,19.90
2022-10-13T04:29:20.649Z,17.35
2022-10-13T04:31:48.357Z,19.75
2022-10-13T04:34:16.139Z,13.97
2022-10-13T04:36:44.252Z,18.20
2022-10-13T04:39:11.881Z,12.73
2022-10-13T04:41:39.866Z,19.13
2022-10-13T04:44:07.538Z,11.70
2022-10-13T04:46:35.314Z,15.00
2022-10-13T04:49:03.024Z,21.00
2022-10-13T04:51:30.749Z,15.57
2022-10-13T04:53:58.953Z,17.13
2022-10-13T04:56:26.833Z,18.15
2022-10-13T04:58:54.678Z,21.53
2022-10-13T05:01:23.270Z,19.85
2022-10-13T05:03:56.986Z,16.33
2022-10-13T05:06:25.383Z,21.17
2022-10-13T05:08:53.171Z,14.27
2022-10-13T05:11:24.500Z,19.08
2022-10-13T05:13:52.275Z,18.40
2022-10-13T05:16:21.211Z,14.77
2022-10-13T05:18:49.198Z,18.77
2022-10-13T05:21:17.721Z,13.85
2022-10-13T05:23:45.863Z,16.03
2022-10-13T05:26:14.566Z,15.05
2022-10-13T05:28:42.413Z,12.68
2022-10-13T05:31:13.368Z,18.00
2022-10-13T05:33:41.094Z,18.38
2022-10-13T05:36:09.882Z,19.63
2022-10-13T05:38:37.548Z,15.00
2022-10-13T05:41:06.223Z,15.43
2022-10-13T05:43:34.172Z,15.20
2022-10-13T05:46:02.068Z,16.58
2022-10-13T05:48:30.051Z,24.20
2022-10-13T05:50:58.622Z,21.25
2022-10-13T05:53:26.500Z,22.80
2022-10-13T05:55:54.186Z,12.00
2022-10-13T05:58:21.931Z,18.45
2022-10-13T06:00:49.649Z,15.95
2022-10-13T06:03:18.636Z,18.27
2022-10-13T06:05:47.672Z,16.33
2022-10-13T06:08:16.135Z,11.43
2022-10-13T06:10:43.934Z,17.08
2022-10-13T06:13:11.567Z,13.77
2022-10-13T06:15:39.332Z,17.42
2022-10-13T06:18:10.452Z,13.57
2022-10-13T06:20:38.193Z,7.10
2022-10-13T06:23:05.895Z,11.70
2022-10-13T06:25:33.674Z,21.50
2022-10-13T06:28:01.427Z,11.70
2022-10-13T06:30:29.196Z,10.48
2022-10-13T06:32:56.961Z,15.73
2022-10-13T06:35:24.712Z,14.50
2022-10-13T06:37:53.309Z,22.67
2022-10-13T06:40:20.946Z,21.75
2022-10-13T06:42:51.667Z,19.05
2022-10-13T06:45:22.442Z,19.10
2022-10-13T06:47:50.161Z,19.85
2022-10-13T06:50:17.926Z,20.48
2022-10-13T06:52:45.703Z,20.73
2022-10-13T06:55:13.516Z,19.65
2022-10-13T06:57:41.292Z,15.05
2022-10-13T07:00:09.372Z,18.63
2022-10-13T07:02:37.159Z,18.77
2022-10-13T07:05:05.026Z,19.33
2022-10-13T07:07:32.683Z,11.98
2022-10-13T07:10:00.438Z,17.03
2022-10-13T07:12:28.139Z,24.60
2022-10-13T07:14:55.864Z,18.60
2022-10-13T07:17:23.630Z,17.57
2022-10-13T07:19:52.788Z,23.05
2022-10-13T07:22:23.458Z,16.95
2022-10-13T07:24:51.267Z,19.85
2022-10-13T07:27:19.003Z,14.33
2022-10-13T07:29:46.644Z,23.48
2022-10-13T07:32:14.378Z,28.00
2022-10-13T07:34:42.155Z,18.60
2022-10-13T07:37:10.250Z,24.60
2022-10-13T07:39:37.959Z,23.83
2022-10-13T07:42:05.685Z,23.33
2022-10-13T07:44:33.393Z,22.63
2022-10-13T07:47:01.128Z,16.77
2022-10-13T07:49:28.878Z,19.63
2022-10-13T07:51:56.539Z,20.70
2022-10-13T07:54:25.223Z,22.38
2022-10-13T07:56:56.025Z,22.65
2022-10-13T07:59:24.400Z,25.13
2022-10-13T08:01:52.503Z,15.32
2022-10-13T08:04:20.166Z,17.40
2022-10-13T08:06:47.947Z,21.87
2022-10-13T08:09:16.749Z,17.40
2022-10-13T08:11:44.478Z,22.02
2022-10-13T08:14:13.210Z,21.55
2022-10-13T08:16:45.733Z,26.63
2022-10-13T08:19:15.702Z,21.40
2022-10-13T08:21:59.976Z,24.10
2022-10-13T08:24:29.994Z,30.80
2022-10-13T08:26:57.882Z,23.50
2022-10-13T08:29:25.582Z,23.45
2022-10-13T08:31:53.832Z,24.57
2022-10-13T08:34:22.411Z,24.02
2022-10-13T08:36:53.482Z,24.92
2022-10-13T08:39:21.917Z,28.67
2022-10-13T08:41:49.768Z,28.07
2022-10-13T08:45:05.897Z,28.60
2022-10-13T08:47:24.739Z,30.13
2022-10-13T08:49:57.767Z,31.77
2022-10-13T08:52:29.067Z,25.40
2022-10-13T08:54:57.300Z,32.08
2022-10-13T08:57:25.027Z,28.33
2022-10-13T08:59:52.862Z,35.20
2022-10-13T09:02:24.995Z,32.75
2022-10-13T09:04:53.337Z,27.58
2022-10-13T09:07:30.927Z,28.00
2022-10-13T09:09:58.723Z,32.53
2022-10-13T09:12:26.518Z,23.27
2022-10-13T09:15:01.995Z,30.90
2022-10-13T09:17:29.875Z,29.02
2022-10-13T09:20:03.586Z,26.60
2022-10-13T09:22:31.270Z,24.73
2022-10-13T09:25:07.842Z,30.80
2022-10-13T09:27:53.633Z,27.55
2022-10-13T09:30:40.002Z,23.40
2022-10-13T09:33:13.501Z,24.07
2022-10-13T09:35:45.084Z,27.70
2022-10-13T09:38:15.618Z,25.33
2022-10-13T09:40:57.005Z,27.30
2022-10-13T09:43:34.114Z,24.50
2022-10-13T09:46:02.278Z,26.40
2022-10-13T09:48:31.266Z,24.50
2022-10-13T09:50:59.326Z,28.98
2022-10-13T09:53:27.208Z,21.13
2022-10-13T09:56:11.177Z,21.85
2022-10-13T09:58:40.472Z,23.23
2022-10-13T10:01:08.218Z,23.08
2022-10-13T10:03:36.938Z,21.88
2022-10-13T10:06:06.023Z,25.00
2022-10-13T10:09:02.636Z,21.13
2022-10-13T10:11:33.684Z,24.73
2022-10-13T10:14:13.433Z,22.13
2022-10-13T10:16:42.950Z,24.33
2022-10-13T10:19:23.868Z,26.58
2022-10-13T10:21:54.372Z,23.30
2022-10-13T10:24:24.993Z,24.10
2022-10-13T10:26:56.085Z,23.52
2022-10-13T10:29:42.042Z,23.00
2022-10-13T10:32:09.771Z,23.37
2022-10-13T10:34:48.525Z,24.05
2022-10-13T10:37:22.809Z,23.95
2022-10-13T10:40:13.119Z,22.90
2022-10-13T10:42:49.686Z,23.55
2022-10-13T10:45:38.955Z,22.20
2022-10-13T10:48:25.376Z,25.25
2022-10-13T10:50:53.020Z,22.43
2022-10-13T10:53:20.782Z,20.67
2022-10-13T10:55:50.876Z,26.33
2022-10-13T10:58:21.462Z,24.37
2022-10-13T11:01:09.450Z,20.15
2022-10-13T11:03:49.354Z,18.30
2022-10-13T11:06:17.068Z,22.52
2022-10-13T11:08:48.148Z,21.50
2022-10-13T11:11:26.569Z,25.27
2022-10-13T11:14:01.390Z,20.65
2022-10-13T11:16:33.571Z,21.50
2022-10-13T11:19:07.202Z,19.67
2022-10-13T11:21:53.378Z,21.35
2022-10-13T11:24:44.286Z,25.23
2022-10-13T11:27:15.018Z,19.27
2022-10-13T11:29:57.951Z,18.42
2022-10-13T11:32:31.071Z,18.70
2022-10-13T11:35:03.305Z,22.02
2022-10-13T11:37:36.937Z,17.65
2022-10-13T11:40:14.182Z,21.05
2022-10-13T11:42:53.314Z,17.47
2022-10-13T11:45:38.178Z,21.55
2022-10-13T11:48:24.651Z,16.75
2022-10-13T11:51:01.435Z,17.83
2022-10-13T11:53:32.637Z,18.73
2022-10-13T11:56:03.597Z,21.63
2022-10-13T11:58:34.545Z,19.40
2022-10-13T12:01:02.230Z,16.63
2022-10-13T12:03:31.139Z,18.20
2022-10-13T12:06:00.907Z,15.38
2022-10-13T12:08:29.093Z,14.17
2022-10-13T12:10:58.340Z,13.05
2022-10-13T12:13:26.907Z,13.93
2022-10-13T12:16:06.285Z,12.07
2022-10-13T12:18:35.055Z,11.82
2022-10-13T12:21:11.967Z,11.82
2022-10-13T12:23:39.726Z,11.00
2022-10-13T12:26:07.519Z,10.30
2022-10-13T12:28:46.477Z,14.85
2022-10-13T12:31:18.852Z,9.63
2022-10-13T12:33:52.920Z,11.97
2022-10-13T12:36:21.878Z,9.70
2022-10-13T12:38:52.915Z,12.77
2022-10-13T12:41:29.906Z,16.27
2022-10-13T12:44:01.085Z,12.43
2022-10-13T12:46:42.302Z,12.10
2022-10-13T12:49:12.823Z,13.70
2022-10-13T12:51:40.603Z,9.55
2022-10-13T12:54:09.478Z,12.57
2022-10-13T12:56:37.312Z,10.60
2022-10-13T12:59:05.273Z,9.53
2022-10-13T13:01:33.824Z,7.45
2022-10-13T13:04:02.665Z,9.02
2022-10-13T13:06:34.538Z,7.97
2022-10-13T13:09:29.286Z,10.85
2022-10-13T13:12:29.708Z,10.07
2022-10-13T13:14:57.727Z,10.43
2022-10-13T13:20:26.522Z,13.00
2022-10-13T13:22:54.630Z,5.43
2022-10-13T13:25:22.711Z,2.10
2022-10-13T13:27:50.907Z,3.33
2022-10-13T13:30:19.760Z,4.43
2022-10-13T13:32:47.653Z,5.20
2022-10-13T13:35:15.797Z,4.00
2022-10-13T13:37:45.077Z,3.40
2022-10-13T13:40:20.576Z,5.88
2022-10-13T13:42:48.307Z,1.25
2022-10-13T13:45:16.421Z,7.70
2022-10-13T13:47:47.490Z,4.65
2022-10-13T13:50:25.360Z,3.40
2022-10-13T13:52:53.094Z,12.27
2022-10-13T13:55:20.868Z,4.15
2022-10-13T13:57:48.578Z,8.33
2022-10-13T14:00:16.671Z,5.25
2022-10-13T14:02:44.774Z,7.88
2022-10-13T14:05:12.831Z,4.57
2022-10-13T14:07:42.221Z,3.72
2022-10-13T14:10:10.644Z,7.00
2022-10-13T14:12:38.457Z,5.95
2022-10-13T14:15:06.523Z,4.77
2022-10-13T14:17:34.174Z,3.85
2022-10-13T14:20:02.111Z,3.78
2022-10-13T14:22:29.858Z,4.83
2022-10-13T14:24:57.777Z,2.17
2022-10-13T14:27:26.181Z,3.78
2022-10-13T14:29:53.891Z,4.93
2022-10-13T14:32:21.908Z,3.58
2022-10-13T14:34:50.197Z,2.25
2022-10-13T14:37:22.153Z,6.60
2022-10-13T14:39:51.990Z,1.87
2022-10-13T14:42:19.707Z,2.08
2022-10-13T14:44:47.654Z,2.42
2022-10-13T14:47:16.691Z,4.23
2022-10-13T14:49:44.502Z,3.00
2022-10-13T14:52:12.218Z,3.95
2022-10-13T14:54:43.926Z,5.32
2022-10-13T14:57:16.164Z,6.10
2022-10-13T14:59:44.230Z,1.40
2022-10-13T15:02:13.127Z,7.15
2022-10-13T15:04:43.676Z,4.90
2022-10-13T15:07:11.505Z,5.95
2022-10-13T15:09:52.172Z,6.05
2022-10-13T15:12:21.725Z,1.23
2022-10-13T15:14:49.645Z,5.05
2022-10-13T15:17:17.365Z,1.55
2022-10-13T15:19:45.004Z,5.13
2022-10-13T15:22:12.830Z,3.17
2022-10-13T15:24:40.584Z,6.40
2022-10-13T15:27:08.301Z,7.10
2022-10-13T15:29:35.995Z,4.13
2022-10-13T15:32:10.548Z,2.58
2022-10-13T15:34:41.295Z,8.10
2022-10-13T15:37:09.072Z,3.77
2022-10-13T15:39:36.813Z,3.15
2022-10-13T15:42:05.258Z,5.18
2022-10-13T15:44:51.075Z,2.40
2022-10-13T15:47:20.894Z,5.75
2022-10-13T15:49:48.598Z,5.90
2022-10-13T15:52:16.350Z,7.00
2022-10-13T15:54:44.237Z,9.23
2022-10-13T15:57:11.914Z,4.57
2022-10-13T15:59:39.657Z,8.73
2022-10-13T16:02:07.333Z,4.23
2022-10-13T16:04:37.609Z,4.40
2022-10-13T16:07:05.556Z,5.93
2022-10-13T16:09:33.217Z,6.40
2022-10-13T16:12:00.948Z,3.58
2022-10-13T16:14:28.655Z,7.68
2022-10-13T16:16:58.174Z,5.32
2022-10-13T16:19:26.463Z,6.40
2022-10-13T16:21:54.724Z,5.28
2022-10-13T16:24:22.407Z,3.17
2022-10-13T16:26:53.047Z,3.97
2022-10-13T16:29:20.775Z,4.38
2022-10-13T16:31:48.412Z,3.88
2022-10-13T16:34:16.343Z,2.77
2022-10-13T16:36:44.134Z,5.45
2022-10-13T16:39:11.966Z,9.02
2022-10-13T16:41:39.680Z,4.15
2022-10-13T16:44:07.460Z,4.67
2022-10-13T16:46:35.156Z,5.60
2022-10-13T16:49:03.144Z,6.18
2022-10-13T16:51:30.954Z,5.23
2022-10-13T16:54:04.353Z,2.97
2022-10-13T16:56:32.753Z,4.90
2022-10-13T16:59:04.430Z,5.63
2022-10-13T17:01:32.364Z,3.60
2022-10-13T17:04:00.341Z,4.25
2022-10-13T17:06:28.799Z,3.88
2022-10-13T17:08:59.193Z,8.30
2022-10-13T17:11:30.510Z,5.07
2022-10-13T17:14:01.449Z,6.88
2022-10-13T17:16:30.740Z,4.30
2022-10-13T17:18:58.403Z,6.45
2022-10-13T17:21:26.167Z,6.28
2022-10-13T17:23:55.396Z,1.97
2022-10-13T17:26:23.269Z,7.10
2022-10-13T17:28:54.522Z,7.78
2022-10-13T17:31:23.785Z,2.88
2022-10-13T17:33:52.777Z,6.73
2022-10-13T17:36:24.871Z,8.13
2022-10-13T17:38:53.003Z,5.72
2022-10-13T17:41:24.104Z,6.73
2022-10-13T17:43:54.652Z,7.10
2022-10-13T17:46:46.361Z,3.55
2022-10-13T17:49:17.371Z,11.53
2022-10-13T17:51:45.173Z,12.57
2022-10-13T17:54:16.353Z,4.95
2022-10-13T17:56:45.412Z,5.78
2022-10-13T17:59:13.796Z,6.00
2022-10-13T18:01:44.601Z,12.55
2022-10-13T18:04:16.233Z,6.68
2022-10-13T18:06:44.200Z,4.87
2022-10-13T18:09:16.180Z,8.27
2022-10-13T18:11:49.826Z,6.88
2022-10-13T18:14:19.121Z,6.63
2022-10-13T18:16:46.914Z,7.35
2022-10-13T18:19:14.667Z,5.13
2022-10-13T18:21:42.431Z,7.88
2022-10-13T18:24:10.311Z,5.67
2022-10-13T18:26:38.127Z,5.65
2022-10-13T18:29:07.142Z,4.03
2022-10-13T18:31:35.628Z,11.20
2022-10-13T18:34:04.038Z,6.45
2022-10-13T18:36:35.605Z,7.30
2022-10-13T18:39:04.536Z,8.70
2022-10-13T18:41:32.348Z,7.47
2022-10-13T18:44:00.101Z,7.05
2022-10-13T18:46:27.887Z,8.18
2022-10-13T18:48:56.007Z,5.57
2022-10-13T18:51:23.773Z,10.07
2022-10-13T18:53:51.595Z,5.95
2022-10-13T18:56:22.580Z,5.97
2022-10-13T18:58:51.369Z,6.38
2022-10-13T19:01:22.244Z,4.75
2022-10-13T19:03:51.851Z,5.97
2022-10-13T19:06:20.043Z,6.80
2022-10-13T19:08:47.807Z,6.50
2022-10-13T19:11:16.598Z,7.00
2022-10-13T19:13:44.470Z,6.50
2022-10-13T19:16:15.807Z,8.45
2022-10-13T19:18:43.545Z,3.10
2022-10-13T19:21:11.995Z,3.07
2022-10-13T19:23:40.110Z,7.28
2022-10-13T19:26:15.407Z,5.20
2022-10-13T19:28:43.707Z,8.27
2022-10-13T19:31:15.834Z,4.80
2022-10-13T19:33:44.764Z,7.72
2022-10-13T19:36:13.661Z,5.05
2022-10-13T19:38:41.430Z,7.80
2022-10-13T19:41:09.182Z,7.60
2022-10-13T19:43:36.911Z,7.22
2022-10-13T19:46:04.570Z,6.60
2022-10-13T19:48:32.295Z,4.53
2022-10-13T19:51:02.990Z,4.75
2022-10-13T19:53:30.763Z,8.00
2022-10-13T19:55:58.589Z,4.47
2022-10-13T19:58:26.305Z,5.40
2022-10-13T20:00:54.020Z,12.75
2022-10-13T20:03:21.942Z,12.00
2022-10-13T20:05:49.631Z,10.50
2022-10-13T20:08:18.749Z,4.88
2022-10-13T20:10:46.399Z,5.47
2022-10-13T20:13:14.124Z,7.32
2022-10-13T20:15:42.441Z,5.65
2022-10-13T20:18:13.089Z,5.27
2022-10-13T20:20:41.295Z,6.13
2022-10-13T20:23:09.624Z,9.32
2022-10-13T20:25:40.505Z,7.72
2022-10-13T20:28:08.185Z,7.17
2022-10-13T20:30:35.930Z,7.82
2022-10-13T20:33:03.599Z,4.85
2022-10-13T20:35:31.328Z,10.27
2022-10-13T20:37:58.974Z,7.85
2022-10-13T20:40:26.750Z,7.55
2022-10-13T20:42:57.477Z,10.13
2022-10-13T20:45:25.231Z,12.32
2022-10-13T20:47:52.996Z,6.85
2022-10-13T20:50:20.887Z,10.10
2022-10-13T20:52:48.566Z,8.57
2022-10-13T20:55:16.393Z,7.75
2022-10-13T20:57:44.100Z,10.35
2022-10-13T21:00:12.038Z,8.90
2022-10-13T21:02:39.745Z,8.35
2022-10-13T21:05:07.490Z,8.63
2022-10-13T21:07:35.219Z,10.00
2022-10-13T21:10:02.882Z,11.23
2022-10-13T21:12:30.639Z,10.00
2022-10-13T21:14:58.359Z,10.82
2022-10-13T21:17:26.114Z,11.37
2022-10-13T21:19:55.607Z,13.00
2022-10-13T21:22:23.245Z,7.00
2022-10-13T21:24:50.993Z,10.83
2022-10-13T21:27:19.727Z,7.07
2022-10-13T21:29:47.670Z,14.55
2022-10-13T21:32:17.614Z,6.17
2022-10-13T21:34:45.399Z,6.30
2022-10-13T21:37:13.277Z,8.65
2022-10-13T21:39:41.029Z,8.00
2022-10-13T21:42:08.748Z,7.03
2022-10-13T21:44:36.375Z,8.18
2022-10-13T21:47:04.097Z,7.38
2022-10-13T21:49:31.777Z,8.07
2022-10-13T21:51:59.495Z,7.97
2022-10-13T21:54:27.307Z,10.32
2022-10-13T21:56:55.072Z,6.90
2022-10-13T21:59:22.727Z,9.48
2022-10-13T22:01:50.454Z,8.88
2022-10-13T22:04:18.109Z,8.23
2022-10-13T22:06:45.865Z,9.40
2022-10-13T22:09:13.710Z,12.13
2022-10-13T22:11:44.552Z,9.02
2022-10-13T22:14:12.515Z,7.77
2022-10-13T22:16:41.388Z,10.75
2022-10-13T22:19:09.174Z,7.85
2022-10-13T22:21:37.916Z,9.13
2022-10-13T22:24:06.116Z,8.13
2022-10-13T22:26:34.520Z,8.02
2022-10-13T22:29:02.546Z,9.75
2022-10-13T22:31:30.776Z,12.27
2022-10-13T22:33:58.513Z,9.15
2022-10-13T22:36:26.247Z,6.85
2022-10-13T22:38:54.784Z,12.73
2022-10-13T22:41:22.504Z,10.57
2022-10-13T22:43:53.967Z,8.07
2022-10-13T22:46:22.516Z,7.00
2022-10-13T22:48:50.197Z,7.60
2022-10-13T22:51:20.319Z,11.13
2022-10-13T22:53:48.249Z,10.05
2022-10-13T22:56:18.215Z,9.13
2022-10-13T22:58:49.627Z,12.20
2022-10-13T23:01:17.430Z,7.25
2022-10-13T23:03:47.474Z,8.73
2022-10-13T23:06:15.563Z,18.75
2022-10-13T23:08:43.259Z,17.35
2022-10-13T23:11:11.115Z,9.90
2022-10-13T23:13:38.812Z,9.50
2022-10-13T23:16:11.070Z,9.65
2022-10-13T23:18:39.248Z,8.07
2022-10-13T23:21:09.884Z,10.00
2022-10-13T23:23:37.610Z,11.95
2022-10-13T23:26:12.389Z,7.78
2022-10-13T23:28:40.167Z,15.00
2022-10-13T23:31:12.443Z,8.10
2022-10-13T23:33:40.412Z,10.00
2022-10-13T23:36:08.539Z,9.47
2022-10-13T23:38:36.328Z,11.13
2022-10-13T23:41:07.385Z,9.77
2022-10-13T23:43:35.147Z,10.82
2022-10-13T23:46:02.874Z,11.23
2022-10-13T23:48:30.614Z,20.27
2022-10-13T23:50:58.316Z,72.32
2022-10-13T23:53:25.977Z,56.37
2022-10-13T23:55:53.753Z,40.22
2022-10-13T23:58:21.392Z,74.25
